createdAt,value
2023-05-19T00:07:32.711Z,77.0376
2023-05-19T00:09:33.672Z,77.7107
2023-05-19T00:10:34.787Z,78.1377
2023-05-19T00:13:37.322Z,77.5611
2023-05-19T00:20:40.060Z,77.9614
2023-05-19T00:21:41.099Z,77.9606
2023-05-19T00:23:42.369Z,76.4727
2023-05-19T00:24:42.912Z,77.2337
2023-05-19T00:25:43.599Z,76.9781
2023-05-19T00:26:44.749Z,76.7903
2023-05-19T00:28:45.662Z,79.0461
2023-05-19T00:29:46.719Z,79.5099
2023-05-19T00:34:49.368Z,78.2954
2023-05-19T00:36:50.043Z,78.5712
2023-05-19T00:37:50.088Z,78.9432
2023-05-19T00:38:50.956Z,78.6985
2023-05-19T00:39:51.941Z,81.1107
2023-05-19T00:40:52.523Z,80.3361
2023-05-19T00:41:52.840Z,79.9194
2023-05-19T00:42:53.300Z,79.1921
2023-05-19T00:43:54.149Z,79.1625
2023-05-19T00:45:54.522Z,79.4571
2023-05-19T00:46:54.772Z,80.6359
2023-05-19T00:48:53.054Z,79.3653
2023-05-19T00:49:53.390Z,79.8811
2023-05-19T00:50:54.376Z,80.3008
2023-05-19T00:51:55.089Z,80.6012
2023-05-19T00:52:57.026Z,81.5208
2023-05-19T01:00:00.524Z,78.1346
2023-05-19T01:05:04.142Z,79.1559
2023-05-19T01:06:04.704Z,79.6461
2023-05-19T01:08:04.549Z,80.7575
2023-05-19T01:10:05.566Z,80.1692
2023-05-19T01:11:06.125Z,79.1943
2023-05-19T01:18:09.122Z,81.8457
2023-05-19T01:25:14.664Z,81.9297
2023-05-19T01:27:15.383Z,83.3750
2023-05-19T01:29:16.427Z,84.6882
2023-05-19T01:37:21.055Z,82.9651
2023-05-19T01:40:21.560Z,82.0955
2023-05-19T01:41:22.479Z,82.4805
2023-05-19T01:42:23.270Z,82.1086
2023-05-19T01:43:23.661Z,81.8110
2023-05-19T01:45:26.309Z,81.7848
2023-05-19T01:47:27.944Z,82.6565
2023-05-19T01:58:35.410Z,81.5732
2023-05-19T01:59:36.504Z,81.4548
2023-05-19T02:00:37.569Z,82.5734
2023-05-19T02:01:38.409Z,82.0466
2023-05-19T02:08:42.002Z,82.0738
2023-05-19T02:10:43.378Z,81.3517
2023-05-19T02:11:44.520Z,82.6260
2023-05-19T02:12:44.664Z,82.8389
2023-05-19T02:13:45.684Z,82.3820
2023-05-19T02:14:46.036Z,83.0226
2023-05-19T02:15:49.077Z,82.6147
2023-05-19T02:16:50.410Z,82.7334
2023-05-19T02:17:51.115Z,82.2104
2023-05-19T02:18:51.537Z,82.6089
2023-05-19T02:19:51.531Z,83.4272
2023-05-19T02:20:52.442Z,82.3815
2023-05-19T02:21:52.988Z,81.9257
2023-05-19T02:22:53.936Z,81.5394
2023-05-19T02:23:54.592Z,82.0754
2023-05-19T02:24:54.639Z,83.2415
2023-05-19T02:25:55.484Z,82.3918
2023-05-19T02:26:55.978Z,82.4615
2023-05-19T02:27:57.350Z,82.1898
2023-05-19T02:28:58.107Z,83.4517
2023-05-19T02:29:58.102Z,84.5012
2023-05-19T02:31:00.069Z,83.1397
2023-05-19T02:32:00.906Z,82.0889
2023-05-19T02:39:03.809Z,81.6277
2023-05-19T02:42:06.234Z,81.3596
2023-05-19T02:44:07.122Z,81.5954
2023-05-19T02:53:19.514Z,82.6502
2023-05-19T02:54:19.723Z,82.8863
2023-05-19T02:55:21.066Z,81.9599
2023-05-19T02:56:22.181Z,81.3025
2023-05-19T02:57:24.166Z,82.7667
2023-05-19T02:58:24.300Z,82.9248
2023-05-19T02:59:25.708Z,82.7185
2023-05-19T03:00:24.937Z,83.1582
2023-05-19T03:01:25.667Z,83.1954
2023-05-19T03:02:26.006Z,82.5133
2023-05-19T03:03:26.651Z,83.5403
2023-05-19T03:04:26.682Z,82.2795
2023-05-19T03:05:28.070Z,82.2342
2023-05-19T03:06:29.066Z,82.0550
2023-05-19T03:11:32.120Z,83.2448
2023-05-19T03:12:32.565Z,82.9969
2023-05-19T03:13:33.489Z,82.5907
2023-05-19T03:15:34.080Z,82.7357
2023-05-19T03:16:35.248Z,82.2952
2023-05-19T03:17:35.593Z,83.4350
2023-05-19T03:18:35.699Z,84.3063
2023-05-19T03:19:37.109Z,82.9209
2023-05-19T03:20:40.922Z,83.6516
2023-05-19T03:21:39.976Z,84.0323
2023-05-19T03:25:42.301Z,82.9117
2023-05-19T03:27:43.017Z,83.2862
2023-05-19T03:28:43.569Z,83.6787
2023-05-19T03:30:43.371Z,83.2248
2023-05-19T03:31:43.492Z,83.1815
2023-05-19T03:32:43.768Z,83.6124
2023-05-19T03:33:44.557Z,83.8171
2023-05-19T03:35:45.741Z,84.5308
2023-05-19T03:36:46.068Z,84.3474
2023-05-19T03:37:46.692Z,83.4500
2023-05-19T03:38:47.801Z,84.2229
2023-05-19T03:44:50.264Z,82.6330
2023-05-19T03:45:50.926Z,82.7997
2023-05-19T03:46:52.717Z,83.3328
2023-05-19T03:47:53.412Z,83.0833
2023-05-19T03:48:54.979Z,83.3320
2023-05-19T03:53:55.600Z,85.6650
2023-05-19T03:54:57.020Z,85.9799
2023-05-19T04:04:01.936Z,84.4796
2023-05-19T04:09:04.212Z,84.7589
2023-05-19T04:10:04.570Z,84.5932
2023-05-19T04:12:07.721Z,84.5551
2023-05-19T04:14:09.666Z,86.1309
2023-05-19T04:15:09.802Z,86.9901
2023-05-19T04:16:11.425Z,87.2380
2023-05-19T04:18:11.872Z,86.9901
2023-05-19T04:20:13.182Z,86.4355
2023-05-19T04:21:13.864Z,84.9777
2023-05-19T04:22:15.057Z,85.1125
2023-05-19T04:23:15.814Z,85.3361
2023-05-19T04:24:17.327Z,85.8571
2023-05-19T04:25:17.490Z,86.0693
2023-05-19T04:26:17.964Z,85.9225
2023-05-19T04:27:19.163Z,85.4214
2023-05-19T04:30:21.929Z,86.3545
2023-05-19T04:31:22.051Z,86.1323
2023-05-19T04:32:22.851Z,86.0536
2023-05-19T04:33:24.270Z,86.4929
2023-05-19T04:34:25.318Z,85.7030
2023-05-19T04:38:26.847Z,84.8741
2023-05-19T04:39:27.489Z,84.2277
2023-05-19T04:40:27.806Z,84.8631
2023-05-19T04:41:28.759Z,84.3993
2023-05-19T04:42:29.883Z,84.3714
2023-05-19T04:43:30.160Z,84.1367
2023-05-19T04:44:31.559Z,83.7489
2023-05-19T04:45:31.738Z,84.3048
2023-05-19T04:47:34.627Z,83.7372
2023-05-19T04:53:39.282Z,83.4605
2023-05-19T04:54:39.511Z,83.8940
2023-05-19T04:55:39.873Z,83.8502
2023-05-19T04:56:40.443Z,82.3408
2023-05-19T05:04:43.595Z,82.1377
2023-05-19T05:05:45.365Z,81.9665
2023-05-19T05:07:45.593Z,82.1082
2023-05-19T05:08:46.688Z,81.0722
2023-05-19T05:09:47.093Z,81.0867
2023-05-19T05:10:47.706Z,81.3344
2023-05-19T05:22:54.908Z,79.5499
2023-05-19T05:23:56.150Z,80.1127
2023-05-19T05:24:56.251Z,79.4751
2023-05-19T05:25:56.650Z,80.0221
2023-05-19T05:28:59.807Z,80.1948
2023-05-19T05:30:00.298Z,80.6394
2023-05-19T05:31:00.518Z,80.7878
2023-05-19T05:32:00.927Z,80.5921
2023-05-19T05:33:01.270Z,81.2888
2023-05-19T05:34:02.333Z,81.4206
2023-05-19T05:35:03.404Z,81.4135
2023-05-19T05:36:04.882Z,80.7924
2023-05-19T05:37:06.278Z,81.4674
2023-05-19T05:38:07.047Z,81.3931
2023-05-19T05:39:08.397Z,82.0781
2023-05-19T05:40:08.807Z,81.6469
2023-05-19T05:41:09.856Z,81.5919
2023-05-19T05:42:11.063Z,81.8843
2023-05-19T05:43:12.534Z,81.7354
2023-05-19T05:44:12.767Z,82.0044
2023-05-19T05:45:13.212Z,82.1674
2023-05-19T05:56:20.348Z,81.2672
2023-05-19T05:57:20.813Z,81.9584
2023-05-19T05:58:21.726Z,81.5425
2023-05-19T05:59:22.713Z,81.8033
2023-05-19T06:01:22.168Z,81.7352
2023-05-19T06:02:23.786Z,81.7627
2023-05-19T06:03:24.719Z,81.8950
2023-05-19T06:04:26.005Z,82.4267
2023-05-19T06:05:26.446Z,81.7808
2023-05-19T06:06:27.486Z,81.9522
2023-05-19T06:07:28.007Z,81.6392
2023-05-19T06:11:07.230Z,80.8943
2023-05-19T06:12:08.276Z,81.4096
2023-05-19T06:13:08.890Z,81.9673
2023-05-19T06:14:09.516Z,81.8341
2023-05-19T06:15:09.782Z,82.1467
2023-05-19T06:17:12.830Z,81.9753
2023-05-19T06:18:13.850Z,82.1195
2023-05-19T06:23:18.183Z,81.8427
2023-05-19T06:24:18.853Z,81.8401
2023-05-19T06:25:18.878Z,81.6656
2023-05-19T06:29:21.377Z,82.0382
2023-05-19T06:30:21.836Z,82.5992
2023-05-19T06:31:22.930Z,82.2342
2023-05-19T06:32:22.919Z,82.5078
2023-05-19T06:33:25.556Z,81.5996
2023-05-19T06:34:25.681Z,82.1855
2023-05-19T06:39:30.351Z,81.9688
2023-05-19T06:40:31.498Z,82.1178
2023-05-19T06:42:32.022Z,81.9689
2023-05-19T06:43:32.396Z,82.2270
2023-05-19T06:44:33.477Z,82.2031
2023-05-19T06:45:34.216Z,82.3325
2023-05-19T06:46:34.346Z,82.0375
2023-05-19T06:47:35.498Z,82.3741
2023-05-19T06:48:35.784Z,81.7357
2023-05-19T06:49:37.761Z,81.9841
2023-05-19T06:54:39.136Z,82.3080
2023-05-19T06:55:54.356Z,82.4151
2023-05-19T06:56:40.725Z,82.8362
2023-05-19T06:58:43.640Z,81.7241
2023-05-19T06:59:43.934Z,81.9628
2023-05-19T07:00:44.883Z,81.8302
2023-05-19T07:09:47.200Z,80.9329
2023-05-19T07:12:48.598Z,80.1353
2023-05-19T07:15:49.701Z,80.6168
2023-05-19T07:16:50.253Z,80.1223
2023-05-19T07:17:52.120Z,80.1918
2023-05-19T07:18:52.507Z,79.6474
2023-05-19T07:19:53.810Z,80.6456
2023-05-19T07:20:54.102Z,80.4228
2023-05-19T07:21:55.620Z,80.2095
2023-05-19T07:22:55.903Z,80.2528
2023-05-19T07:23:57.113Z,79.7639
2023-05-19T07:26:58.849Z,80.0613
2023-05-19T07:27:59.266Z,79.3230
2023-05-19T07:29:12.203Z,79.1032
2023-05-19T07:30:02.156Z,78.6332
2023-05-19T07:31:03.278Z,78.1192
2023-05-19T07:32:04.074Z,79.5714
2023-05-19T07:33:05.340Z,78.7698
2023-05-19T07:34:06.244Z,78.5131
2023-05-19T07:35:06.575Z,79.0529
2023-05-19T07:36:07.984Z,79.1982
2023-05-19T07:39:11.295Z,80.0525
2023-05-19T07:40:12.006Z,80.1614
2023-05-19T07:41:13.022Z,79.0022
2023-05-19T07:42:13.514Z,78.3284
2023-05-19T07:43:14.702Z,78.1535
2023-05-19T07:44:15.581Z,78.4374
2023-05-19T07:45:16.710Z,78.4207
2023-05-19T07:49:18.357Z,77.1375
2023-05-19T07:50:19.310Z,76.9490
2023-05-19T07:51:19.558Z,76.1860
2023-05-19T07:54:21.657Z,76.1794
2023-05-19T07:55:22.106Z,75.4654
2023-05-19T07:56:22.823Z,75.6874
2023-05-19T07:57:23.207Z,76.1275
2023-05-19T07:58:24.073Z,75.4883
2023-05-19T07:59:25.427Z,76.3610
2023-05-19T08:00:26.070Z,75.7546
2023-05-19T08:01:27.134Z,76.4580
2023-05-19T08:02:27.670Z,75.8033
2023-05-19T08:04:29.651Z,75.6436
2023-05-19T08:05:30.303Z,75.5193
2023-05-19T08:06:30.867Z,77.1743
2023-05-19T08:07:31.354Z,77.6175
2023-05-19T08:12:33.891Z,77.9924
2023-05-19T08:13:34.669Z,78.4793
2023-05-19T08:14:34.962Z,77.9536
2023-05-19T08:15:35.478Z,78.5539
2023-05-19T08:16:36.021Z,77.9874
2023-05-19T08:17:36.928Z,76.9601
2023-05-19T08:18:37.766Z,77.2268
2023-05-19T08:21:38.737Z,77.0296
2023-05-19T08:22:38.971Z,77.4999
2023-05-19T08:23:39.902Z,77.3398
2023-05-19T08:24:40.705Z,77.4033
2023-05-19T08:25:42.358Z,77.1571
2023-05-19T08:26:43.232Z,78.5356
2023-05-19T08:27:44.022Z,77.0322
2023-05-19T08:28:44.969Z,77.5747
2023-05-19T08:29:45.977Z,77.3885
2023-05-19T08:33:47.502Z,78.0103
2023-05-19T08:34:47.883Z,77.0208
2023-05-19T08:35:47.922Z,77.2833
2023-05-19T08:36:49.060Z,77.3357
2023-05-19T08:37:49.155Z,77.8889
2023-05-19T08:38:50.117Z,78.0300
2023-05-19T08:39:51.327Z,78.2119
2023-05-19T08:40:51.735Z,77.5676
2023-05-19T08:52:19.439Z,75.0418
2023-05-19T08:54:19.789Z,74.6424
2023-05-19T08:55:20.777Z,74.1255
2023-05-19T08:56:21.872Z,74.0363
2023-05-19T08:57:22.927Z,72.6656
2023-05-19T08:58:23.765Z,73.8092
2023-05-19T08:59:24.600Z,73.9529
2023-05-19T09:00:25.689Z,73.4351
2023-05-19T09:01:25.938Z,73.2139
2023-05-19T09:02:27.057Z,74.2931
2023-05-19T09:03:28.691Z,71.7906
2023-05-19T09:04:29.994Z,73.7952
2023-05-19T09:05:29.465Z,74.7111
2023-05-19T09:06:30.187Z,75.6430
2023-05-19T09:07:31.459Z,74.6440
2023-05-19T09:08:32.582Z,75.0916
2023-05-19T09:09:32.753Z,75.9520
2023-05-19T09:10:33.476Z,74.5997
2023-05-19T09:11:33.616Z,72.9353
2023-05-19T09:12:34.824Z,74.6364
2023-05-19T09:13:36.007Z,75.0380
2023-05-19T09:14:37.208Z,75.6346
2023-05-19T09:32:51.180Z,76.4240
2023-05-19T09:33:51.426Z,75.9132
2023-05-19T09:34:52.551Z,76.4969
2023-05-19T09:35:52.684Z,76.6168
2023-05-19T09:36:53.861Z,77.0158
2023-05-19T09:37:54.132Z,76.1066
2023-05-19T09:38:55.160Z,75.1397
2023-05-19T09:39:56.112Z,74.1402
2023-05-19T09:40:57.048Z,74.4810
2023-05-19T09:41:58.065Z,73.5682
2023-05-19T09:42:59.133Z,74.5361
2023-05-19T09:44:00.189Z,73.4751
2023-05-19T09:45:01.270Z,73.3755
2023-05-19T09:46:02.288Z,73.8893
2023-05-19T09:47:03.246Z,73.4700
2023-05-19T09:48:04.171Z,73.7469
2023-05-19T09:49:04.186Z,74.2668
2023-05-19T09:50:05.089Z,73.4970
2023-05-19T09:51:06.206Z,72.6401
2023-05-19T09:52:07.214Z,72.1991
2023-05-19T09:53:08.191Z,71.6186
2023-05-19T09:54:08.298Z,72.2510
2023-05-19T09:55:09.342Z,73.3458
2023-05-19T09:56:09.365Z,72.8689
2023-05-19T09:57:10.384Z,71.9870
2023-05-19T10:20:28.893Z,71.2939
2023-05-19T10:21:30.063Z,71.0091
2023-05-19T10:22:31.270Z,72.3495
2023-05-19T10:23:32.049Z,71.3587
2023-05-19T10:24:33.162Z,71.8382
2023-05-19T10:25:34.425Z,71.5979
2023-05-19T10:26:34.331Z,71.9666
2023-05-19T10:27:35.271Z,72.2172
2023-05-19T10:28:36.190Z,72.1847
2023-05-19T10:29:37.098Z,71.5000
2023-05-19T10:30:38.150Z,69.5332
2023-05-19T10:31:39.319Z,71.0871
2023-05-19T10:32:39.397Z,71.5278
2023-05-19T10:33:40.432Z,71.5570
2023-05-19T10:34:41.277Z,70.4775
2023-05-19T10:35:42.199Z,70.4318
2023-05-19T10:36:42.266Z,71.0319
2023-05-19T10:37:43.449Z,70.2976
2023-05-19T10:38:44.527Z,71.0331
2023-05-19T10:39:45.094Z,72.3512
2023-05-19T10:40:46.093Z,72.3315
2023-05-19T10:41:47.063Z,72.3145
2023-05-19T10:42:46.928Z,71.5563
2023-05-19T10:43:48.182Z,71.3568
2023-05-19T10:44:48.733Z,71.1365
2023-05-19T10:45:48.944Z,71.0919
2023-05-19T10:46:49.474Z,71.8922
2023-05-19T11:03:04.226Z,68.4191
2023-05-19T11:04:05.989Z,69.2439
2023-05-19T11:05:06.457Z,69.1749
2023-05-19T11:06:07.481Z,68.5704
2023-05-19T11:07:08.644Z,70.2857
2023-05-19T11:08:09.668Z,70.1405
2023-05-19T11:09:10.695Z,71.5017
2023-05-19T11:10:10.895Z,71.9424
2023-05-19T11:11:11.829Z,69.7698
2023-05-19T11:12:12.754Z,70.2010
2023-05-19T11:13:14.909Z,70.3175
2023-05-19T11:14:14.737Z,70.5293
2023-05-19T11:15:15.718Z,70.9258
2023-05-19T11:16:16.889Z,69.7307
2023-05-19T11:17:18.078Z,69.3221
2023-05-19T11:18:18.785Z,68.8387
2023-05-19T11:19:20.002Z,69.2183
2023-05-19T11:20:20.109Z,68.5547
2023-05-19T11:21:21.227Z,68.1522
2023-05-19T11:22:22.152Z,67.2877
2023-05-19T11:23:23.442Z,68.3780
2023-05-19T11:24:23.448Z,68.5662
2023-05-19T11:25:24.435Z,69.4968
2023-05-19T11:26:25.271Z,69.2211
2023-05-19T11:27:26.153Z,69.2507
2023-05-19T11:28:26.992Z,69.7576
2023-05-19T11:29:27.858Z,71.5855
2023-05-19T11:30:28.849Z,71.1004
2023-05-19T11:31:29.777Z,70.9572
2023-05-19T11:32:30.955Z,70.8489
2023-05-19T11:33:30.813Z,70.6669
2023-05-19T11:34:31.673Z,70.2582
2023-05-19T11:35:35.444Z,69.2771
2023-05-19T11:36:32.809Z,68.6469
2023-05-19T11:37:33.576Z,67.9459
2023-05-19T11:38:34.388Z,67.4830
2023-05-19T11:39:35.401Z,66.8061
2023-05-19T11:40:36.222Z,66.6637
2023-05-19T11:41:37.267Z,66.3366
2023-05-19T11:42:38.268Z,63.9118
2023-05-19T11:43:39.275Z,63.4536
2023-05-19T11:44:40.482Z,62.7821
2023-05-19T11:45:41.188Z,63.3579
2023-05-19T11:46:42.352Z,65.9056
2023-05-19T11:48:00.895Z,64.0591
2023-05-19T11:48:44.021Z,65.5023
2023-05-19T11:49:44.862Z,64.5781
2023-05-19T11:50:45.896Z,65.5615
2023-05-19T11:51:47.015Z,64.3790
2023-05-19T11:52:48.180Z,64.4342
2023-05-19T11:53:48.381Z,63.2323
2023-05-19T11:54:49.442Z,62.6193
2023-05-19T11:55:50.932Z,62.7674
2023-05-19T11:56:50.775Z,63.7683
2023-05-19T11:58:02.903Z,62.5850
2023-05-19T11:58:52.374Z,62.6518
2023-05-19T11:59:53.392Z,63.0921
2023-05-19T12:00:54.448Z,62.7672
2023-05-19T12:01:54.612Z,61.7665
2023-05-19T12:02:54.707Z,61.6771
2023-05-19T12:03:54.796Z,61.3782
2023-05-19T12:04:55.831Z,61.9645
2023-05-19T12:05:56.618Z,60.1022
2023-05-19T12:06:56.459Z,61.0723
2023-05-19T12:07:57.674Z,62.9865
2023-05-19T12:08:58.609Z,61.9466
2023-05-19T12:09:59.670Z,61.8266
2023-05-19T12:11:00.531Z,63.6321
2023-05-19T12:12:01.493Z,63.4428
2023-05-19T12:13:02.441Z,63.4873
2023-05-19T12:14:03.411Z,63.0179
2023-05-19T12:15:04.334Z,62.1219
2023-05-19T12:16:05.402Z,64.9479
2023-05-19T12:17:06.533Z,63.7091
2023-05-19T12:18:07.748Z,64.1855
2023-05-19T12:19:08.678Z,63.8916
2023-05-19T12:20:09.916Z,63.4859
2023-05-19T12:21:09.877Z,64.0611
2023-05-19T12:22:10.058Z,64.4495
2023-05-19T12:23:10.082Z,63.4599
2023-05-19T12:24:10.878Z,62.2453
2023-05-19T12:25:11.778Z,62.5298
2023-05-19T12:26:11.881Z,64.2630
2023-05-19T12:27:12.987Z,63.4756
2023-05-19T12:28:14.808Z,63.1406
2023-05-19T12:38:22.091Z,62.0637
2023-05-19T12:39:22.985Z,62.4388
2023-05-19T12:40:24.056Z,62.9372
2023-05-19T12:41:25.228Z,63.5123
2023-05-19T12:42:26.152Z,62.4192
2023-05-19T12:43:27.320Z,63.2125
2023-05-19T12:44:28.301Z,63.0069
2023-05-19T12:45:29.174Z,64.6660
2023-05-19T12:46:30.406Z,65.3881
2023-05-19T12:47:31.353Z,65.2040
2023-05-19T12:48:31.436Z,64.6991
2023-05-19T12:49:32.518Z,65.5659
2023-05-19T12:50:32.966Z,65.7612
2023-05-19T12:51:33.494Z,65.3921
2023-05-19T12:52:34.149Z,65.3423
2023-05-19T12:53:35.080Z,65.8428
2023-05-19T12:54:36.296Z,64.9644
2023-05-19T12:57:37.457Z,65.6015
2023-05-19T12:58:37.496Z,65.2901
2023-05-19T12:59:38.992Z,65.8587
2023-05-19T13:00:39.150Z,66.4015
2023-05-19T13:01:40.581Z,64.7695
2023-05-19T13:02:41.543Z,65.0935
2023-05-19T13:03:42.060Z,64.6686
2023-05-19T13:04:43.173Z,64.9502
2023-05-19T13:05:44.218Z,64.9524
2023-05-19T13:06:45.168Z,62.5558
2023-05-19T13:07:45.979Z,64.1542
2023-05-19T13:08:46.823Z,61.9625
2023-05-19T13:09:47.055Z,64.2515
2023-05-19T13:10:47.935Z,62.4134
2023-05-19T13:11:48.835Z,63.1924
2023-05-19T13:12:49.849Z,64.6174
2023-05-19T13:13:49.962Z,64.4350
2023-05-19T13:14:51.660Z,65.7633
2023-05-19T13:15:51.191Z,66.2872
2023-05-19T13:16:52.275Z,67.5533
2023-05-19T13:17:53.273Z,67.5363
2023-05-19T13:18:53.670Z,67.6658
2023-05-19T13:19:54.382Z,68.2231
2023-05-19T13:20:55.314Z,68.9196
2023-05-19T13:21:56.467Z,69.4051
2023-05-19T13:22:57.418Z,69.7045
2023-05-19T13:23:58.486Z,68.9695
2023-05-19T13:24:59.442Z,69.0101
2023-05-19T13:26:00.053Z,68.0705
2023-05-19T13:27:00.263Z,67.2870
2023-05-19T13:28:01.560Z,67.3615
2023-05-19T13:29:02.502Z,67.1937
2023-05-19T13:30:03.418Z,67.3363
2023-05-19T13:31:04.425Z,66.0212
2023-05-19T13:32:04.397Z,66.4755
2023-05-19T13:33:05.652Z,67.4106
2023-05-19T13:34:06.204Z,67.2455
2023-05-19T13:35:07.004Z,69.9290
2023-05-19T13:36:07.378Z,67.9337
2023-05-19T13:48:16.355Z,68.8938
2023-05-19T13:49:17.360Z,69.2361
2023-05-19T13:50:18.344Z,67.7521
2023-05-19T13:51:19.302Z,67.9039
2023-05-19T13:52:20.380Z,66.1520
2023-05-19T13:53:21.450Z,67.5479
2023-05-19T13:54:22.677Z,67.2991
2023-05-19T13:55:23.729Z,66.7605
2023-05-19T13:56:24.555Z,66.6033
2023-05-19T13:57:25.505Z,66.6271
2023-05-19T13:58:26.438Z,67.8842
2023-05-19T13:59:27.448Z,67.7216
2023-05-19T14:00:27.865Z,68.0842
2023-05-19T14:01:28.022Z,68.7043
2023-05-19T14:13:43.685Z,71.9397
2023-05-19T14:14:43.699Z,70.5869
2023-05-19T14:15:43.794Z,71.5427
2023-05-19T14:16:45.300Z,70.0066
2023-05-19T14:17:46.390Z,72.1537
2023-05-19T14:18:46.475Z,71.2191
2023-05-19T14:19:47.658Z,71.1527
2023-05-19T14:20:48.676Z,70.0887
2023-05-19T14:21:49.687Z,70.3744
2023-05-19T14:22:50.675Z,69.6177
2023-05-19T14:23:51.919Z,69.4635
2023-05-19T14:24:52.680Z,68.6976
2023-05-19T14:25:53.777Z,69.1750
2023-05-19T14:26:53.899Z,68.5696
2023-05-19T14:27:55.044Z,69.5207
2023-05-19T14:28:56.247Z,70.3682
2023-05-19T14:29:57.138Z,72.1868
2023-05-19T14:30:57.272Z,70.9834
2023-05-19T14:31:58.555Z,70.3460
2023-05-19T14:32:59.589Z,71.0245
2023-05-19T14:34:00.786Z,70.6116
2023-05-19T14:35:01.727Z,68.9346
2023-05-19T14:36:02.783Z,68.7120
2023-05-19T14:37:03.840Z,69.2097
2023-05-19T14:38:04.998Z,69.6123
2023-05-19T14:39:05.771Z,69.5333
2023-05-19T14:40:08.813Z,69.3698
2023-05-19T14:45:10.230Z,69.1083
2023-05-19T15:16:34.241Z,68.5920
2023-05-19T15:17:35.498Z,69.9089
2023-05-19T15:18:36.662Z,70.0146
2023-05-19T15:19:36.894Z,68.4105
2023-05-19T15:20:40.278Z,68.9024
2023-05-19T15:21:40.550Z,70.3923
2023-05-19T15:23:41.261Z,70.7411
2023-05-19T15:28:03.122Z,71.2029
2023-05-19T15:29:04.370Z,70.5961
2023-05-19T15:30:05.139Z,71.5580
2023-05-19T15:32:06.197Z,72.0844
2023-05-19T15:34:07.636Z,71.6002
2023-05-19T15:35:07.938Z,72.1082
2023-05-19T15:36:08.221Z,71.2921
2023-05-19T15:37:09.674Z,71.4615
2023-05-19T15:38:09.366Z,70.6887
2023-05-19T15:39:10.697Z,71.4369
2023-05-19T15:40:11.974Z,71.7101
2023-05-19T15:46:15.456Z,71.6774
2023-05-19T15:47:15.968Z,71.8036
2023-05-19T15:48:17.960Z,71.1324
2023-05-19T15:49:18.248Z,71.1153
2023-05-19T15:52:21.286Z,72.1968
2023-05-19T15:53:22.558Z,72.5734
2023-05-19T15:54:23.332Z,72.6057
2023-05-19T15:55:24.150Z,71.9238
2023-05-19T15:56:24.263Z,71.9366
2023-05-19T15:57:25.356Z,72.1354
2023-05-19T15:58:26.185Z,71.5581
2023-05-19T15:59:27.389Z,71.5179
2023-05-19T16:01:28.122Z,71.8775
2023-05-19T16:03:27.714Z,71.5531
2023-05-19T16:04:28.788Z,70.7212
2023-05-19T16:05:29.093Z,71.4365
2023-05-19T16:06:30.079Z,71.8451
2023-05-19T16:07:30.475Z,71.1112
2023-05-19T16:08:31.009Z,72.6762
2023-05-19T16:09:32.227Z,71.2977
2023-05-19T16:10:32.898Z,71.0894
2023-05-19T16:12:33.824Z,71.5795
2023-05-19T16:13:35.112Z,70.8119
2023-05-19T16:15:35.602Z,70.1073
2023-05-19T16:16:37.052Z,69.7526
2023-05-19T16:17:36.848Z,69.4204
2023-05-19T16:18:38.378Z,69.1640
2023-05-19T16:19:38.385Z,69.3987
2023-05-19T16:21:39.128Z,69.1035
2023-05-19T16:32:44.369Z,68.9441
2023-05-19T16:33:44.597Z,69.2828
2023-05-19T16:34:45.581Z,70.2870
2023-05-19T16:36:46.830Z,70.0389
2023-05-19T16:38:47.891Z,72.0720
2023-05-19T16:39:48.370Z,69.8965
2023-05-19T16:45:52.597Z,69.9163
2023-05-19T16:46:53.309Z,70.0528
2023-05-19T16:47:54.677Z,70.2658
2023-05-19T16:48:55.825Z,71.4945
2023-05-19T16:49:56.017Z,70.4180
2023-05-19T16:51:57.154Z,70.0790
2023-05-19T16:52:57.500Z,70.4989
2023-05-19T16:53:57.664Z,72.0929
2023-05-19T16:56:00.451Z,71.6317
2023-05-19T16:57:01.493Z,72.3795
2023-05-19T16:59:02.118Z,71.5948
2023-05-19T17:00:03.302Z,72.5558
2023-05-19T17:01:03.774Z,72.1083
2023-05-19T17:02:05.117Z,72.3445
2023-05-19T17:03:05.368Z,71.8752
2023-05-19T17:04:05.577Z,70.8246
2023-05-19T17:05:07.186Z,71.8380
2023-05-19T17:06:07.431Z,71.3768
2023-05-19T17:08:08.374Z,71.1448
2023-05-19T17:09:09.267Z,71.2856
2023-05-19T17:10:10.599Z,70.4766
2023-05-19T17:11:11.458Z,71.0753
2023-05-19T17:12:11.808Z,71.4248
2023-05-19T17:13:12.995Z,71.3277
2023-05-19T17:14:14.205Z,71.8134
2023-05-19T17:15:15.035Z,71.8372
2023-05-19T17:16:15.913Z,71.6742
2023-05-19T17:17:16.045Z,71.8215
2023-05-19T17:18:16.880Z,71.6003
2023-05-19T17:19:17.836Z,71.5082
2023-05-19T17:20:18.382Z,71.9536
2023-05-19T17:21:19.589Z,71.9390
2023-05-19T17:22:20.178Z,73.2836
2023-05-19T17:23:20.867Z,72.8034
2023-05-19T17:24:21.775Z,71.6774
2023-05-19T17:25:22.146Z,72.3811
2023-05-19T17:26:23.153Z,72.3689
2023-05-19T17:27:24.039Z,72.0569
2023-05-19T17:32:26.185Z,72.1699
2023-05-19T17:34:27.470Z,72.7747
2023-05-19T17:35:28.657Z,75.1244
2023-05-19T17:36:29.042Z,75.3829
2023-05-19T17:37:30.524Z,73.3301
2023-05-19T17:40:32.008Z,72.4432
2023-05-19T17:42:32.547Z,72.8305
2023-05-19T17:43:32.809Z,73.2403
2023-05-19T17:45:36.439Z,73.8981
2023-05-19T17:54:41.864Z,74.1574
2023-05-19T17:55:42.398Z,73.9069
2023-05-19T17:56:43.939Z,73.3696
2023-05-19T17:57:45.662Z,74.1073
2023-05-19T17:58:45.975Z,74.2604
2023-05-19T17:59:46.099Z,74.7850
2023-05-19T18:00:47.752Z,73.8944
2023-05-19T18:01:47.913Z,74.4702
2023-05-19T18:02:48.404Z,72.8441
2023-05-19T18:03:50.013Z,73.5920
2023-05-19T18:08:52.853Z,72.4778
2023-05-19T18:09:53.215Z,72.2049
2023-05-19T18:11:56.193Z,73.0366
2023-05-19T18:12:57.428Z,74.0382
2023-05-19T18:14:59.101Z,73.5626
2023-05-19T18:16:00.268Z,72.7586
2023-05-19T18:17:00.519Z,72.8946
2023-05-19T18:18:01.099Z,72.5518
2023-05-19T18:19:01.952Z,71.9116
2023-05-19T18:30:09.731Z,73.1857
2023-05-19T18:31:10.669Z,74.7792
2023-05-19T18:32:11.097Z,74.1399
2023-05-19T18:33:12.109Z,74.2836
2023-05-19T18:34:11.496Z,73.8437
2023-05-19T18:35:12.644Z,74.1582
2023-05-19T18:36:13.963Z,73.7005
2023-05-19T18:37:14.920Z,73.1221
2023-05-19T18:38:15.103Z,74.4654
2023-05-19T18:39:16.115Z,74.4419
2023-05-19T18:40:16.550Z,74.5714
2023-05-19T18:41:16.820Z,73.6719
2023-05-19T18:43:20.345Z,74.1061
2023-05-19T18:44:21.438Z,73.6383
2023-05-19T18:53:28.614Z,75.5721
2023-05-19T18:54:29.595Z,75.2730
2023-05-19T18:56:30.283Z,75.3214
2023-05-19T18:57:30.793Z,75.2725
2023-05-19T18:59:33.852Z,75.1815
2023-05-19T19:00:35.269Z,74.8639
2023-05-19T19:01:35.292Z,75.7997
2023-05-19T19:02:36.335Z,76.9726
2023-05-19T19:03:37.781Z,77.2156
2023-05-19T19:04:38.247Z,75.0009
2023-05-19T19:05:39.609Z,75.5681
2023-05-19T19:06:42.014Z,75.4586
2023-05-19T19:15:47.580Z,76.8169
2023-05-19T19:16:48.699Z,76.9943
2023-05-19T19:17:49.625Z,75.8754
2023-05-19T19:18:50.687Z,77.9881
2023-05-19T19:19:51.281Z,76.1031
2023-05-19T19:20:51.487Z,76.4115
2023-05-19T19:21:52.365Z,75.7401
2023-05-19T19:22:52.750Z,76.0961
2023-05-19T19:23:53.946Z,76.1416
2023-05-19T19:24:55.121Z,76.4047
2023-05-19T19:25:55.653Z,75.7982
2023-05-19T19:26:57.080Z,76.3253
2023-05-19T19:27:57.322Z,75.6202
2023-05-19T19:28:57.414Z,76.9664
2023-05-19T19:29:58.302Z,77.0420
2023-05-19T19:36:03.797Z,76.6381
2023-05-19T19:37:05.272Z,76.5496
2023-05-19T19:39:06.154Z,76.3506
2023-05-19T19:40:06.243Z,77.9126
2023-05-19T19:41:07.240Z,76.4949
2023-05-19T19:42:08.415Z,76.2571
2023-05-19T19:43:09.064Z,76.2778
2023-05-19T19:44:10.290Z,76.8474
2023-05-19T19:45:12.496Z,77.0296
2023-05-19T19:46:12.271Z,76.8815
2023-05-19T19:47:12.783Z,78.1084
2023-05-19T19:48:13.091Z,77.3944
2023-05-19T19:49:13.959Z,77.2733
2023-05-19T19:50:15.061Z,78.2676
2023-05-19T19:51:16.294Z,79.8032
2023-05-19T19:52:17.636Z,79.6068
2023-05-19T19:58:21.215Z,77.6665
2023-05-19T19:59:21.571Z,77.4493
2023-05-19T20:00:22.403Z,76.7009
2023-05-19T20:01:22.869Z,77.8062